Flight Track Log - Related Links

Times and Time Zones

All times are in EDT time to prevent confusion due to time zone crossing. See the N524NK flight status page for this flight to view local times or setup timezone preferences in your user account.

Time Position Orientation Groundspeed Altitude Reporting Facility
EDT Latitude Longitude Course Direction KTS MPH feet Rate Location/Type
Wed 10:27:42 PM 33.6380 -78.9100 158° South 178 205 1,800  Level FlightAware ADS-B
Wed 10:27:57 PM 33.6340 -78.8920 105° East 219 252 2,300 1,680 Climbing FlightAware ADS-B
Wed 10:28:07 PM 33.6370 -78.8800 73° East 233 268 2,500 1,440 Climbing FlightAware ADS-B
Wed 10:28:22 PM 33.6480 -78.8640 50° Northeast 258 297 2,900 1,800 Climbing FlightAware ADS-B
Wed 10:28:37 PM 33.6650 -78.8530 28° Northeast 278 320 3,400 3,333 Climbing FlightAware ADS-B
Wed 10:29:07 PM 33.7010 -78.8320 26° Northeast 283 326 5,400 4,036 Climbing FlightAware ADS-B
Wed 10:29:32 PM 33.7300 -78.8170 23° Northeast 277 319 7,100 3,273 Climbing FlightAware ADS-B
Wed 10:30:02 PM 33.7680 -78.8000 20° North 302 348 8,400 2,727 Climbing FlightAware ADS-B
Wed 10:30:27 PM 33.7980 -78.7860 21° North 312 359 9,600 2,492 Climbing FlightAware ADS-B
Wed 10:31:07 PM 33.8580 -78.7580 21° North 347 399 11,100 2,612 Climbing FlightAware ADS-B
Wed 10:31:52 PM 33.9350 -78.7200 22° Northeast 368 423 13,300 2,682 Climbing FlightAware ADS-B
Wed 10:32:32 PM 33.9960 -78.6900 22° Northeast 383 441 14,900 2,471 Climbing FlightAware ADS-B
Wed 10:33:17 PM 34.0750 -78.6520 22° Northeast 395 455 16,800 2,400 Climbing FlightAware ADS-B
Wed 10:33:57 PM 34.1390 -78.6210 22° Northeast 403 464 18,300 2,067 Climbing FlightAware ADS-B
Wed 10:34:47 PM 34.2250 -78.5640 29° Northeast 426 490 19,900 1,011 Climbing FlightAware ADS-B
Wed 10:35:32 PM 34.2950 -78.5150 30° Northeast 426 490 19,900  Level FlightAware ADS-B
Wed 10:36:12 PM 34.3530 -78.4750 30° Northeast 426 490 19,900  Level FlightAware ADS-B
Wed 10:37:02 PM 34.4250 -78.4240 30° Northeast 426 490 19,900  Level FlightAware ADS-B
Wed 10:37:42 PM 34.4830 -78.3830 30° Northeast 426 490 19,900  Level FlightAware ADS-B
Wed 10:38:22 PM 34.5410 -78.3430 30° Northeast 426 490 19,900 5,903 Level FlightAware ADS-B
Wed 10:38:44 PM 34.6447 -78.2731 30° Northeast 436 502 26,000 4,902 Climbing Washington Center
Wed 10:39:44 PM 34.7528 -78.1981 30° Northeast 436 502 26,600 800 Climbing Washington Center
Wed 10:40:44 PM 34.8525 -78.1231 32° Northeast 444 511 27,600 1,266 Climbing Washington Center
Wed 10:46:22 PM 35.5090 -77.6110 32° Northeast 494 568 35,000 1,270 Climbing FlightAware ADS-B
Wed 10:47:02 PM 35.5790 -77.5440 38° Northeast 488 562 35,600 1,129 Climbing FlightAware ADS-B
Wed 10:47:47 PM 35.6690 -77.4810 30° Northeast 481 554 36,600 988 Climbing FlightAware ADS-B
Wed 10:48:27 PM 35.7380 -77.4320 30° Northeast 471 542 37,000 1,360 Climbing FlightAware ADS-B
Wed 10:49:02 PM 35.8050 -77.3850 30° Northeast 465 535 38,300 975 Climbing FlightAware ADS-B
Wed 10:49:47 PM 35.8820 -77.3320 29° Northeast 465 535 38,300 400 Level FlightAware ADS-B
Wed 10:50:32 PM 35.9790 -77.2620 30° Northeast 467 537 38,900 400 Climbing FlightAware ADS-B
Wed 10:51:17 PM 36.0550 -77.2070 30° Northeast 467 537 38,900  Level FlightAware ADS-B
Wed 10:51:57 PM 36.1180 -77.1620 30° Northeast 467 537 38,900 80 Level FlightAware ADS-B
Wed 10:52:32 PM 36.2060 -77.0990 30° Northeast 471 542 39,000 71 Climbing FlightAware ADS-B
Wed 10:53:22 PM 36.2960 -77.0340 30° Northeast 480 552 39,000  Level FlightAware ADS-B
Wed 10:54:02 PM 36.3760 -76.9760 30° Northeast 482 555 39,000  Level FlightAware ADS-B
Wed 10:54:52 PM 36.4680 -76.9100 30° Northeast 483 556 39,000  Level FlightAware ADS-B
Wed 10:55:42 PM 36.5690 -76.8360 30° Northeast 485 558 39,000  Level FlightAware ADS-B
Wed 10:56:37 PM 36.6740 -76.7600 30° Northeast 481 554 39,000  Level FlightAware ADS-B
Wed 10:57:22 PM 36.7590 -76.6980 30° Northeast 473 544 39,000  Level FlightAware ADS-B
Wed 10:57:52 PM 36.8160 -76.6570 30° Northeast 471 542 39,000  Level FlightAware ADS-B
Wed 10:58:42 PM 36.9160 -76.5840 30° Northeast 472 543 39,000  Level FlightAware ADS-B
Wed 10:59:22 PM 36.9880 -76.5300 31° Northeast 473 544 39,000  Level FlightAware ADS-B
Wed 11:00:22 PM 37.1188 -76.4340 30° Northeast 482 555 39,000  Level FlightAware ADS-B
Wed 11:00:52 PM 37.1764 -76.3911 31° Northeast 484 557 39,000  Level FlightAware ADS-B
Wed 11:01:23 PM 37.2357 -76.3472 31° Northeast 485 558 39,000  Level FlightAware ADS-B
Wed 11:01:55 PM 37.2976 -76.3015 30° Northeast 486 559 39,000  Level FlightAware ADS-B
Wed 11:02:26 PM 37.3571 -76.2574 31° Northeast 487 560 39,000  Level FlightAware ADS-B
Wed 11:02:41 PM 37.3855 -76.2348 32° Northeast 491 565 39,000  Level FlightAware ADS-B
Wed 11:03:12 PM 37.4419 -76.1778 39° Northeast 497 572 39,000  Level FlightAware ADS-B
Wed 11:03:52 PM 37.5030 -76.1140 40° Northeast 496 571 39,000  Level FlightAware ADS-B
Wed 11:04:24 PM 37.5691 -76.0472 39° Northeast 497 572 39,000  Level FlightAware ADS-B
Wed 11:04:54 PM 37.6236 -75.9913 39° Northeast 496 571 39,000  Level FlightAware ADS-B
Wed 11:05:25 PM 37.6786 -75.9348 39° Northeast 496 571 39,000  Level FlightAware ADS-B
Wed 11:05:56 PM 37.7313 -75.8806 39° Northeast 496 571 39,000  Level FlightAware ADS-B
Wed 11:06:26 PM 37.7864 -75.8239 39° Northeast 497 572 39,000  Level FlightAware ADS-B
Wed 11:07:22 PM 37.8740 -75.7330 39° Northeast 496 571 39,000  Level FlightAware ADS-B
Wed 11:07:27 PM 37.8952 -75.7110 39° Northeast 497 572 39,000  Level FlightAware ADS-B
Wed 11:07:59 PM 37.9510 -75.6531 39° Northeast 495 570 39,000  Level FlightAware ADS-B
Wed 11:08:30 PM 38.0053 -75.5970 39° Northeast 495 570 39,000  Level FlightAware ADS-B
Wed 11:09:03 PM 38.0640 -75.5358 39° Northeast 496 571 39,000  Level FlightAware ADS-B
Wed 11:09:35 PM 38.1214 -75.4755 40° Northeast 497 572 39,000  Level FlightAware ADS-B
Wed 11:10:12 PM 38.1866 -75.4072 39° Northeast 499 574 39,000  Level FlightAware ADS-B
Wed 11:10:42 PM 38.2407 -75.3503 40° Northeast 501 577 39,000  Level FlightAware ADS-B
Wed 11:11:14 PM 38.2984 -75.2898 39° Northeast 501 577 39,000  Level FlightAware ADS-B
Wed 11:11:48 PM 38.3576 -75.2276 39° Northeast 501 577 39,000  Level FlightAware ADS-B
Wed 11:12:32 PM 38.4373 -75.1431 40° Northeast 501 577 39,000  Level FlightAware ADS-B
Wed 11:13:03 PM 38.4911 -75.0861 40° Northeast 500 575 39,000  Level FlightAware ADS-B
Wed 11:13:33 PM 38.5448 -75.0293 40° Northeast 499 574 39,000  Level FlightAware ADS-B
Wed 11:14:06 PM 38.6030 -74.9676 40° Northeast 500 575 39,000  Level FlightAware ADS-B
Wed 11:14:36 PM 38.6569 -74.9099 40° Northeast 499 574 39,000  Level FlightAware ADS-B
Wed 11:15:07 PM 38.7103 -74.8527 40° Northeast 498 573 39,000  Level FlightAware ADS-B
Wed 11:15:37 PM 38.7637 -74.7955 40° Northeast 498 573 39,000  Level FlightAware ADS-B
Wed 11:16:07 PM 38.8174 -74.7380 40° Northeast 498 573 39,000  Level FlightAware ADS-B
Wed 11:16:38 PM 38.8717 -74.6796 40° Northeast 498 573 39,000  Level FlightAware ADS-B
Wed 11:17:18 PM 38.9414 -74.6045 40° Northeast 497 572 39,000  Level FlightAware ADS-B
Wed 11:17:49 PM 38.9959 -74.5459 40° Northeast 497 572 39,000  Level FlightAware ADS-B
Wed 11:18:19 PM 39.0487 -74.4887 40° Northeast 498 573 39,000  Level FlightAware ADS-B
Wed 11:18:53 PM 39.1094 -74.4229 40° Northeast 499 574 39,000  Level FlightAware ADS-B
Wed 11:19:24 PM 39.1634 -74.3642 40° Northeast 501 577 39,000  Level FlightAware ADS-B
Wed 11:19:54 PM 39.2174 -74.3058 40° Northeast 501 577 39,000  Level FlightAware ADS-B
Wed 11:20:25 PM 39.2715 -74.2468 40° Northeast 501 577 39,000  Level FlightAware ADS-B
Wed 11:20:56 PM 39.3263 -74.1867 40° Northeast 502 578 39,000  Level FlightAware ADS-B
Wed 11:21:27 PM 39.3819 -74.1260 40° Northeast 502 578 39,000  Level FlightAware ADS-B
Wed 11:21:58 PM 39.4368 -74.0655 40° Northeast 502 578 39,000  Level FlightAware ADS-B
Wed 11:22:29 PM 39.4904 -74.0067 40° Northeast 502 578 39,000  Level FlightAware ADS-B
Wed 11:22:59 PM 39.5448 -73.9465 40° Northeast 502 578 39,000  Level FlightAware ADS-B
Wed 11:23:30 PM 39.5990 -73.8865 40° Northeast 503 579 39,000  Level FlightAware ADS-B
Wed 11:24:00 PM 39.6521 -73.8276 40° Northeast 503 579 39,000  Level FlightAware ADS-B
Wed 11:24:31 PM 39.7070 -73.7666 41° Northeast 503 579 39,000  Level FlightAware ADS-B
Wed 11:25:03 PM 39.7631 -73.7040 41° Northeast 504 580 39,000  Level FlightAware ADS-B
Wed 11:25:37 PM 39.8228 -73.6377 40° Northeast 504 580 39,000  Level FlightAware ADS-B
Wed 11:26:09 PM 39.8800 -73.5738 41° Northeast 504 580 39,000  Level FlightAware ADS-B
Wed 11:26:35 PM 39.9252 -73.5231 41° Northeast 505 581 39,000  Level FlightAware ADS-B
Wed 11:27:06 PM 39.9790 -73.4588 42° Northeast 506 582 39,000  Level FlightAware ADS-B
Wed 11:27:40 PM 40.0366 -73.3888 43° Northeast 506 582 39,000  Level FlightAware ADS-B
Wed 11:28:12 PM 40.0926 -73.3215 43° Northeast 506 582 39,000  Level FlightAware ADS-B
Wed 11:28:43 PM 40.1460 -73.2573 43° Northeast 507 583 39,000  Level FlightAware ADS-B
Wed 11:29:14 PM 40.1993 -73.1932 43° Northeast 507 583 39,000  Level FlightAware ADS-B
Wed 11:29:51 PM 40.2627 -73.1166 43° Northeast 507 583 39,000  Level FlightAware ADS-B
Wed 11:30:22 PM 40.3156 -73.0524 43° Northeast 508 585 39,000  Level FlightAware ADS-B
Wed 11:30:53 PM 40.3689 -72.9877 43° Northeast 507 583 39,000  Level FlightAware ADS-B
Wed 11:31:24 PM 40.4229 -72.9221 43° Northeast 508 585 39,000  Level FlightAware ADS-B
Wed 11:31:54 PM 40.4745 -72.8593 43° Northeast 508 585 39,000  Level FlightAware ADS-B
Wed 11:32:37 PM 40.5475 -72.7703 43° Northeast 510 587 39,000  Level FlightAware ADS-B
Wed 11:33:08 PM 40.6009 -72.7053 43° Northeast 509 586 39,000  Level FlightAware ADS-B
Wed 11:33:38 PM 40.6540 -72.6396 43° Northeast 510 587 39,000  Level FlightAware ADS-B
Wed 11:34:09 PM 40.7062 -72.5752 43° Northeast 510 587 39,000 -387 Level FlightAware ADS-B
Wed 11:34:40 PM 40.7601 -72.5091 43° Northeast 512 589 38,600 -1,082 Descending FlightAware ADS-B
Wed 11:35:10 PM 40.8125 -72.4444 43° Northeast 511 588 37,900 -1,475 Descending FlightAware ADS-B
Wed 11:35:41 PM 40.8638 -72.3804 43° Northeast 503 579 37,100 -2,262 Descending FlightAware ADS-B
Wed 11:36:11 PM 40.9146 -72.3174 43° Northeast 509 586 35,600 -2,951 Descending FlightAware ADS-B
Wed 11:36:42 PM 40.9683 -72.2509 43° Northeast 516 594 34,100 -3,049 Descending FlightAware ADS-B
Wed 11:37:12 PM 41.0206 -72.1854 43° Northeast 521 600 32,500 -3,344 Descending FlightAware ADS-B
Wed 11:37:43 PM 41.0755 -72.1163 43° Northeast 523 602 30,700 -3,541 Descending FlightAware ADS-B
Wed 11:38:13 PM 41.1290 -72.0491 43° Northeast 526 605 28,900 -3,000 Descending FlightAware ADS-B
Wed 11:38:45 PM 41.1839 -71.9807 43° Northeast 516 594 27,600 -2,507 Descending FlightAware ADS-B
Wed 11:39:20 PM 41.2441 -71.9055 43° Northeast 509 586 26,100 -2,564 Descending FlightAware ADS-B
Wed 11:40:42 PM 41.3740 -71.7410 44° Northeast 491 565 22,600 -2,667 Descending FlightAware ADS-B
Wed 11:41:17 PM 41.4340 -71.6650 44° Northeast 486 559 20,900 -2,824 Descending FlightAware ADS-B
Wed 11:42:07 PM 41.5160 -71.5610 44° Northeast 475 547 18,600 -2,667 Descending FlightAware ADS-B
Wed 11:42:47 PM 41.5780 -71.4800 44° Northeast 463 533 16,900 -2,471 Descending FlightAware ADS-B
Wed 11:43:32 PM 41.6460 -71.3950 43° Northeast 451 519 15,100 -2,047 Descending FlightAware ADS-B
Wed 11:44:12 PM 41.6970 -71.3100 51° Northeast 429 494 14,000 -1,840 Descending FlightAware ADS-B
Wed 11:44:47 PM 41.7340 -71.2370 56° Northeast 419 482 12,800 -2,047 Descending FlightAware ADS-B
Wed 11:45:37 PM 41.7920 -71.1280 54° Northeast 408 470 11,100 -971 Descending FlightAware ADS-B
Wed 11:46:32 PM 41.8510 -71.0200 54° Northeast 370 426 11,100 -63 Level FlightAware ADS-B
Wed 11:47:12 PM 41.8860 -70.9560 54° Northeast 346 398 11,000 -80 Descending FlightAware ADS-B
Wed 11:47:47 PM 41.9250 -70.8950 49° Northeast 345 397 11,000 -75 Level FlightAware ADS-B
Wed 11:48:32 PM 41.9810 -70.8390 37° Northeast 347 399 10,900 -900 Descending FlightAware ADS-B
Wed 11:49:07 PM 42.0280 -70.7910 37° Northeast 336 387 9,800 -2,073 Descending FlightAware ADS-B
Wed 11:49:27 PM 42.0530 -70.7660 37° Northeast 335 386 9,000 -2,182 Descending FlightAware ADS-B
Wed 11:50:02 PM 42.0970 -70.7220 37° Northeast 325 374 7,800 -2,031 Descending FlightAware ADS-B
Wed 11:50:32 PM 42.1330 -70.6850 37° Northeast 327 376 6,800 -1,964 Descending FlightAware ADS-B
Wed 11:50:57 PM 42.1600 -70.6580 37° Northeast 323 372 6,000 -1,400 Descending FlightAware ADS-B
Wed 11:51:32 PM 42.2040 -70.6230 31° Northeast 323 372 5,400 -2,400 Descending FlightAware ADS-B
Wed 11:51:52 PM 42.2340 -70.6640 315° West 282 325 3,800 -2,133 Descending FlightAware ADS-B
Wed 11:52:17 PM 42.2610 -70.6750 343° North 282 325 3,800 -565 Level FlightAware ADS-B
Wed 11:53:17 PM 42.3360 -70.7140 339° North 253 291 3,000 -533 Descending FlightAware ADS-B
Wed 11:53:47 PM 42.3610 -70.7420 320° Northwest 209 241 3,000  Level FlightAware ADS-B
Wed 11:54:02 PM 42.3710 -70.7610 305° West 207 238 3,000 -327 Level FlightAware ADS-B
Wed 11:54:42 PM 42.3900 -70.7980 305° West 170 196 2,700 -480 Descending FlightAware ADS-B
Wed 11:54:52 PM 42.3920 -70.8060 289° West 159 183 2,600 -171 Descending FlightAware ADS-B
Wed 11:55:17 PM 42.3940 -70.8280 277° West 159 183 2,600 -698 Level FlightAware ADS-B
Wed 11:55:35 PM 42.3833 -70.8333 277° West 135 155 2,100 -814 Descending KA90
Wed 11:56:16 PM 42.3811 -70.8689 265° West 136 157 1,800 -545 Descending Boston Center
Wed 11:56:41 PM 42.3833 -70.9000 276° West 127 146 1,500 -706 Descending KA90
Wed 11:57:41 PM 42.3667 -70.9333 236° Southwest 123 142 800 -700 Descending KA90
Wed 11:58:41 PM 42.3667 -70.9833 270° West 124 143 100 -700 Descending KA90
Thu 12:00:00 AM 42.3500 -71.0000 324° Northwest  Level FlightAware Approximate

Login

Don't have an account? Register now (free) for customized features, flight alerts, and more!